Time;durP1;ratioP1;P1;durP2;ratioP2;P2;SDS_P1;SDS_P2;PMS_P1;PMS_P2;Temp;Humidity;BMP_temperature;BMP_pressure;BME280_temperature;BME280_humidity;BME280_pressure;Samples;Min_cycle;Max_cycle;Signal;HPM_P1;HPM_P2
2023/06/08 00:02:18;;;;;;;18.52;16.63;;;19.90;99.90;;;;;;5043051;28;20025;-54
2023/06/08 00:04:45;;;;;;;17.45;15.60;;;19.90;99.90;;;;;;5057047;28;20139;-52
2023/06/08 00:07:15;;;;;;;21.38;19.13;;;19.80;99.90;;;;;;5040853;28;20545;-52
2023/06/08 00:09:42;;;;;;;20.90;18.70;;;19.70;99.90;;;;;;5066514;28;20033;-51
2023/06/08 00:12:08;;;;;;;21.00;18.90;;;19.70;99.90;;;;;;5064296;28;20029;-57
2023/06/08 00:14:35;;;;;;;25.45;21.33;;;19.60;99.90;;;;;;5073225;28;20032;-53
2023/06/08 00:17:04;;;;;;;24.23;21.88;;;19.60;99.90;;;;;;5056510;28;20398;-53
2023/06/08 00:19:31;;;;;;;24.40;21.90;;;19.60;99.90;;;;;;5059485;28;20040;-52
2023/06/08 00:21:59;;;;;;;28.73;23.27;;;19.60;99.90;;;;;;5071615;28;20024;-55
2023/06/08 00:24:25;;;;;;;24.50;22.10;;;19.50;99.90;;;;;;5072178;28;20119;-53
2023/06/08 00:26:51;;;;;;;24.23;21.70;;;19.50;99.90;;;;;;5072979;28;20028;-54
2023/06/08 00:29:17;;;;;;;22.50;20.17;;;19.40;99.90;;;;;;5071990;28;20032;-54
2023/06/08 00:31:43;;;;;;;23.48;21.27;;;19.40;99.90;;;;;;5071942;28;20041;-54
2023/06/08 00:34:09;;;;;;;29.13;21.50;;;19.40;99.90;;;;;;5055142;28;20062;-54
2023/06/08 00:36:37;;;;;;;;;;;19.30;99.90;;;;;;5073700;28;20036;-51
2023/06/08 00:39:04;;;;;;;24.55;21.95;;;19.30;99.90;;;;;;5071229;28;19916;-51
2023/06/08 00:41:30;;;;;;;25.02;22.45;;;19.20;99.90;;;;;;5052946;28;20024;-51
2023/06/08 00:43:56;;;;;;;27.83;24.02;;;19.20;99.90;;;;;;5051604;28;20028;-52
2023/06/08 00:46:24;;;;;;;26.63;24.02;;;19.30;99.90;;;;;;5052684;28;20112;-53
2023/06/08 00:48:52;;;;;;;26.10;23.38;;;19.30;99.90;;;;;;5052806;28;20024;-53
2023/06/08 00:51:20;;;;;;;27.45;24.20;;;19.20;99.90;;;;;;5034857;28;20402;-53
2023/06/08 00:53:46;;;;;;;26.45;23.67;;;19.10;99.90;;;;;;5051484;28;20032;-54
2023/06/08 00:56:17;;;;;;;26.83;24.05;;;19.00;99.90;;;;;;5061341;28;20068;-56
2023/06/08 00:58:46;;;;;;;27.20;24.40;;;19.00;99.90;;;;;;5067483;28;20021;-51
2023/06/08 01:01:18;;;;;;;26.30;23.75;;;19.10;99.90;;;;;;5057778;28;20031;-53
2023/06/08 01:03:45;;;;;;;27.77;24.88;;;19.00;99.90;;;;;;5070412;28;20560;-52
2023/06/08 01:06:13;;;;;;;26.42;23.67;;;19.00;99.90;;;;;;5068633;28;20029;-52
2023/06/08 01:08:47;;;;;;;27.40;24.60;;;19.00;99.90;;;;;;5057227;28;20449;-51
2023/06/08 01:11:31;;;;;;;27.20;24.40;;;19.00;99.90;;;;;;5056306;28;20029;-51
2023/06/08 01:14:18;;;;;;;28.40;25.52;;;19.00;99.90;;;;;;5038044;28;20037;-52
2023/06/08 01:16:55;;;;;;;28.38;24.90;;;18.90;99.90;;;;;;5053178;28;20396;-54
2023/06/08 01:19:52;;;;;;;28.88;25.00;;;19.00;99.90;;;;;;5052560;28;20067;-53
2023/06/08 01:22:35;;;;;;;32.50;27.63;;;19.00;99.90;;;;;;5052441;28;20031;-53
2023/06/08 01:25:04;;;;;;;31.20;27.30;;;19.00;99.90;;;;;;5066950;28;20038;-52
2023/06/08 01:27:36;;;;;;;34.67;30.08;;;18.90;99.90;;;;;;5052242;28;20028;-51
2023/06/08 01:30:06;;;;;;;33.10;28.83;;;18.80;99.90;;;;;;5056450;28;20017;-54
2023/06/08 01:32:33;;;;;;;30.83;26.58;;;18.70;99.90;;;;;;5049607;28;20483;-54
2023/06/08 01:34:59;;;;;;;35.42;30.33;;;18.70;99.90;;;;;;5051106;28;20476;-53
2023/06/08 01:37:42;;;;;;;36.08;31.00;;;18.70;99.90;;;;;;5065243;28;20040;-54
2023/06/08 01:40:23;;;;;;;32.42;28.65;;;18.70;99.90;;;;;;5065060;28;20123;-54
2023/06/08 01:42:51;;;;;;;35.47;31.65;;;18.70;99.90;;;;;;5071696;28;20056;-51
2023/06/08 01:45:21;;;;;;;34.58;30.17;;;18.70;99.90;;;;;;5064111;28;20112;-51
2023/06/08 01:47:57;;;;;;;36.25;31.77;;;18.60;99.90;;;;;;5050538;28;20025;-53
2023/06/08 01:50:26;;;;;;;32.25;28.80;;;18.60;99.90;;;;;;5050554;28;20041;-54
2023/06/08 01:52:58;;;;;;;35.03;31.35;;;18.60;99.90;;;;;;5051586;28;20514;-52
2023/06/08 01:55:24;;;;;;;31.23;27.92;;;18.60;99.90;;;;;;5051523;28;20037;-51
2023/06/08 01:57:50;;;;;;;33.88;28.60;;;18.60;99.90;;;;;;5059619;28;20397;-51
2023/06/08 02:00:18;;;;;;;32.30;28.87;;;18.70;99.90;;;;;;5070356;28;20052;-52
2023/06/08 02:02:44;;;;;;;37.85;30.42;;;18.70;99.90;;;;;;5053979;28;20282;-56
2023/06/08 02:05:13;;;;;;;31.95;28.52;;;18.70;99.90;;;;;;5070137;28;20035;-56
2023/06/08 02:07:40;;;;;;;32.70;29.30;;;18.70;99.90;;;;;;5071427;28;20028;-53
2023/06/08 02:10:08;;;;;;;33.88;30.10;;;18.70;99.90;;;;;;5070247;28;20036;-53
2023/06/08 02:12:37;;;;;;;33.58;29.90;;;18.80;99.90;;;;;;5066917;28;20029;-52
2023/06/08 02:15:03;;;;;;;30.55;27.13;;;18.80;99.90;;;;;;5053028;28;20029;-51
2023/06/08 02:17:36;;;;;;;33.28;29.05;;;18.80;99.90;;;;;;5068297;28;20033;-54
2023/06/08 02:20:06;;;;;;;32.35;29.05;;;18.70;99.90;;;;;;5058616;28;20021;-54
2023/06/08 02:22:36;;;;;;;33.15;29.63;;;18.70;99.90;;;;;;5066723;28;20065;-54
2023/06/08 02:25:07;;;;;;;29.75;26.67;;;18.70;99.90;;;;;;5060734;28;20029;-54
2023/06/08 02:27:36;;;;;;;31.08;27.98;;;18.70;99.90;;;;;;5081652;28;20083;-53
2023/06/08 02:30:08;;;;;;;32.70;28.65;;;18.70;99.90;;;;;;5041574;28;20487;-53
2023/06/08 02:32:33;;;;;;;31.23;26.42;;;18.60;99.90;;;;;;5059333;28;20031;-56
2023/06/08 02:35:01;;;;;;;32.03;27.17;;;18.60;99.90;;;;;;5063645;28;20027;-55
2023/06/08 02:37:27;;;;;;;29.88;26.70;;;18.60;99.90;;;;;;5040569;28;20077;-52
2023/06/08 02:39:53;;;;;;;31.13;27.83;;;18.60;99.90;;;;;;5072301;28;20024;-54
2023/06/08 02:42:19;;;;;;;36.72;29.05;;;18.60;99.90;;;;;;5062797;28;20503;-55
2023/06/08 02:44:46;;;;;;;33.17;29.02;;;18.50;99.90;;;;;;5067170;28;20032;-56
2023/06/08 02:47:15;;;;;;;29.40;26.00;;;18.50;99.90;;;;;;5061444;28;20029;-52
2023/06/08 02:49:42;;;;;;;31.80;28.58;;;18.50;99.90;;;;;;5042155;28;20016;-56
2023/06/08 02:52:08;;;;;;;33.28;29.65;;;18.40;99.90;;;;;;5059803;28;20021;-56
2023/06/08 02:54:34;;;;;;;28.08;25.13;;;18.40;99.90;;;;;;5054755;28;20043;-55
2023/06/08 02:57:00;;;;;;;34.60;29.90;;;18.50;99.90;;;;;;5055377;28;20487;-58
2023/06/08 02:59:29;;;;;;;32.22;28.48;;;18.40;99.90;;;;;;5055559;28;20028;-54
2023/06/08 03:01:56;;;;;;;33.28;28.95;;;18.40;99.90;;;;;;5056928;28;20071;-52
2023/06/08 03:04:30;;;;;;;31.20;27.98;;;18.40;99.90;;;;;;5064510;28;20024;-53
2023/06/08 03:07:01;;;;;;;30.33;27.30;;;18.40;99.90;;;;;;5057442;28;20123;-53
2023/06/08 03:09:29;;;;;;;35.15;30.27;;;18.40;99.90;;;;;;5056615;28;20020;-53
2023/06/08 03:11:57;;;;;;;32.33;28.73;;;18.30;99.90;;;;;;5065999;28;20474;-55
2023/06/08 03:14:28;;;;;;;33.65;29.40;;;18.30;99.90;;;;;;5045073;28;20143;-53
2023/06/08 03:17:02;;;;;;;41.65;33.20;;;18.30;99.90;;;;;;5053055;28;20553;-57
2023/06/08 03:19:30;;;;;;;35.28;31.02;;;18.20;99.90;;;;;;5056718;28;20192;-54
2023/06/08 03:22:04;;;;;;;32.03;28.55;;;18.20;99.90;;;;;;5073079;28;20025;-56
2023/06/08 03:24:33;;;;;;;31.77;28.08;;;18.20;99.90;;;;;;5072383;28;20025;-54
2023/06/08 03:27:00;;;;;;;31.33;27.27;;;18.10;99.90;;;;;;5057389;28;20071;-55
2023/06/08 03:29:27;;;;;;;31.45;28.23;;;18.10;99.90;;;;;;5052487;28;20424;-53
2023/06/08 03:31:53;;;;;;;33.10;28.05;;;18.10;99.90;;;;;;5061348;28;20475;-57
2023/06/08 03:34:25;;;;;;;35.10;29.55;;;18.10;99.90;;;;;;5066666;28;20025;-53
2023/06/08 03:36:55;;;;;;;35.28;31.13;;;18.10;99.90;;;;;;5059042;28;20564;-54
2023/06/08 03:39:23;;;;;;;33.45;28.88;;;18.10;99.90;;;;;;5068977;28;20033;-54
2023/06/08 03:41:50;;;;;;;34.83;28.60;;;18.20;99.90;;;;;;5045443;28;20107;-52
2023/06/08 03:44:18;;;;;;;37.65;32.00;;;18.10;99.90;;;;;;5062472;28;20267;-51
2023/06/08 03:46:45;;;;;;;34.72;30.83;;;18.20;99.90;;;;;;5070680;28;20036;-53
2023/06/08 03:49:11;;;;;;;34.92;31.17;;;18.20;99.90;;;;;;5056680;28;20072;-55
2023/06/08 03:51:37;;;;;;;36.75;30.63;;;18.20;99.90;;;;;;5052044;28;20621;-58
2023/06/08 03:54:04;;;;;;;35.72;29.75;;;18.20;99.90;;;;;;5056752;28;20024;-59
2023/06/08 03:56:29;;;;;;;36.33;29.75;;;18.20;99.90;;;;;;5065207;28;20028;-57
2023/06/08 03:58:56;;;;;;;30.83;27.67;;;18.20;99.90;;;;;;5072424;28;20039;-55
2023/06/08 04:01:23;;;;;;;;;;;18.20;99.90;;;;;;5072260;28;20274;-57
2023/06/08 04:03:51;;;;;;;35.53;30.25;;;18.20;99.90;;;;;;5072412;28;20011;-57
2023/06/08 04:06:18;;;;;;;33.95;30.45;;;18.20;99.90;;;;;;5072052;28;20047;-56
2023/06/08 04:08:45;;;;;;;37.88;33.55;;;18.20;99.90;;;;;;5072277;28;20115;-58
2023/06/08 04:11:12;;;;;;;36.15;32.22;;;18.30;99.90;;;;;;5072196;28;20056;-56
2023/06/08 04:13:39;;;;;;;42.20;34.78;;;18.30;99.90;;;;;;5072162;28;20032;-58
2023/06/08 04:16:09;;;;;;;37.08;32.63;;;18.40;99.90;;;;;;5071830;28;20029;-57
2023/06/08 04:18:37;;;;;;;36.92;32.45;;;18.40;99.90;;;;;;5072041;28;20029;-59
2023/06/08 04:21:06;;;;;;;35.38;31.20;;;18.40;99.90;;;;;;5071970;28;20029;-57
2023/06/08 04:23:34;;;;;;;40.97;33.25;;;18.40;99.90;;;;;;5072035;28;20158;-58
2023/06/08 04:26:02;;;;;;;36.78;32.22;;;18.40;99.90;;;;;;5071746;28;20547;-58
2023/06/08 04:28:29;;;;;;;38.10;33.67;;;18.40;99.90;;;;;;5071841;28;20028;-58
2023/06/08 04:30:55;;;;;;;37.25;33.35;;;18.40;99.90;;;;;;5055178;28;20036;-58
2023/06/08 04:33:22;;;;;;;34.80;30.63;;;18.40;99.90;;;;;;5071730;28;20032;-56
2023/06/08 04:35:49;;;;;;;33.63;30.13;;;18.40;99.90;;;;;;5071682;28;20032;-58
2023/06/08 04:38:15;;;;;;;36.80;32.90;;;18.50;99.90;;;;;;5071648;28;20032;-56
2023/06/08 04:40:49;;;;;;;;;;;18.50;99.90;;;;;;5071503;28;20447;-56
2023/06/08 04:43:17;;;;;;;37.05;33.25;;;18.50;99.90;;;;;;5071560;28;19915;-58
2023/06/08 04:45:45;;;;;;;37.22;33.22;;;18.50;99.90;;;;;;5071191;28;20028;-58
2023/06/08 04:48:12;;;;;;;43.42;35.45;;;18.60;99.90;;;;;;5054992;28;20135;-58
2023/06/08 04:50:38;;;;;;;37.65;33.78;;;18.60;99.90;;;;;;5071395;28;20150;-59
2023/06/08 04:53:05;;;;;;;44.60;37.95;;;18.70;99.90;;;;;;5071455;28;20025;-57
2023/06/08 04:55:31;;;;;;;38.80;34.72;;;18.70;99.90;;;;;;5071027;28;20024;-56
2023/06/08 04:57:57;;;;;;;42.47;36.63;;;18.70;99.90;;;;;;5072495;28;20024;-58
2023/06/08 05:00:22;;;;;;;39.92;35.63;;;18.80;99.90;;;;;;5071197;28;20074;-56
2023/06/08 05:02:49;;;;;;;42.17;37.20;;;18.80;99.90;;;;;;5071099;28;20086;-59
2023/06/08 05:05:15;;;;;;;40.92;36.08;;;18.90;99.90;;;;;;5070947;28;20502;-57
2023/06/08 05:07:44;;;;;;;41.30;36.72;;;18.90;99.90;;;;;;5071007;28;20040;-56
2023/06/08 05:10:11;;;;;;;40.17;35.72;;;18.90;99.90;;;;;;5070984;28;20064;-57
2023/06/08 05:12:37;;;;;;;39.63;35.33;;;19.00;99.90;;;;;;5072242;28;20473;-57
2023/06/08 05:15:03;;;;;;;41.80;36.58;;;19.00;99.90;;;;;;5071974;28;20032;-58
2023/06/08 05:17:29;;;;;;;41.72;37.33;;;19.00;99.90;;;;;;5072183;28;20036;-57
2023/06/08 05:19:54;;;;;;;41.63;36.67;;;19.10;99.90;;;;;;5071030;28;20028;-59
2023/06/08 05:22:20;;;;;;;48.83;37.58;;;19.20;99.90;;;;;;5072096;28;20052;-58
2023/06/08 05:24:46;;;;;;;39.25;33.60;;;19.20;99.90;;;;;;5070629;28;20280;-57
2023/06/08 05:27:12;;;;;;;38.67;34.53;;;19.30;99.90;;;;;;5070788;28;20498;-58
2023/06/08 05:29:38;;;;;;;39.63;35.15;;;19.30;99.90;;;;;;5071938;28;20069;-57
2023/06/08 05:32:07;;;;;;;36.60;32.83;;;19.40;99.90;;;;;;5071877;28;20036;-59
2023/06/08 05:34:32;;;;;;;32.65;29.23;;;19.50;99.90;;;;;;5072022;28;20113;-57
2023/06/08 05:36:58;;;;;;;30.05;27.00;;;19.60;99.90;;;;;;5071928;28;20056;-57
2023/06/08 05:39:24;;;;;;;31.52;27.73;;;19.60;99.90;;;;;;5071723;28;20641;-58
2023/06/08 05:41:50;;;;;;;28.38;25.58;;;19.60;99.90;;;;;;5070516;28;20039;-58
2023/06/08 05:44:16;;;;;;;27.77;25.00;;;19.70;99.90;;;;;;5071952;28;20039;-57
2023/06/08 05:46:41;;;;;;;27.45;24.55;;;19.70;99.90;;;;;;5071682;28;20082;-58
2023/06/08 05:49:07;;;;;;;23.40;20.85;;;19.80;99.90;;;;;;5071818;28;20031;-59
2023/06/08 05:51:33;;;;;;;21.63;19.35;;;19.80;99.90;;;;;;5071170;28;20032;-59
2023/06/08 05:53:59;;;;;;;19.08;17.05;;;19.80;99.90;;;;;;5071785;28;20036;-58
2023/06/08 05:56:26;;;;;;;21.00;17.85;;;19.80;99.90;;;;;;5071486;28;20123;-57
2023/06/08 05:58:52;;;;;;;17.30;15.50;;;19.90;99.90;;;;;;5070326;28;20043;-58
2023/06/08 06:01:21;;;;;;;19.38;17.25;;;20.00;99.90;;;;;;5071601;28;20024;-55
2023/06/08 06:03:47;;;;;;;21.55;14.95;;;20.00;99.90;;;;;;5071600;28;20028;-54
2023/06/08 06:06:13;;;;;;;14.23;12.73;;;20.10;99.90;;;;;;5071519;28;20448;-57
2023/06/08 06:08:39;;;;;;;14.98;13.23;;;20.10;99.90;;;;;;5071486;28;20028;-57
2023/06/08 06:11:05;;;;;;;13.70;12.30;;;20.20;99.90;;;;;;5071524;28;20033;-58
2023/06/08 06:13:31;;;;;;;14.68;12.82;;;20.20;99.90;;;;;;5070241;28;20032;-58
2023/06/08 06:15:58;;;;;;;13.50;12.05;;;20.30;99.90;;;;;;5071397;28;20032;-57
2023/06/08 06:18:24;;;;;;;18.10;12.85;;;20.30;99.90;;;;;;5071445;28;20031;-59
2023/06/08 06:20:50;;;;;;;15.05;12.65;;;20.40;99.90;;;;;;5071413;28;20033;-59
2023/06/08 06:23:16;;;;;;;14.48;12.25;;;20.40;99.90;;;;;;5071391;28;20423;-58
2023/06/08 06:25:43;;;;;;;16.58;13.00;;;20.50;99.90;;;;;;5069987;28;20020;-57
2023/06/08 06:28:09;;;;;;;17.00;13.13;;;20.50;99.90;;;;;;5071299;28;20033;-57
2023/06/08 06:30:36;;;;;;;14.60;13.10;;;20.50;99.90;;;;;;5071352;28;20513;-59
2023/06/08 06:33:02;;;;;;;16.17;14.50;;;20.60;99.90;;;;;;5070375;28;20438;-56
2023/06/08 06:35:28;;;;;;;17.73;14.57;;;20.70;99.90;;;;;;5071191;28;20135;-58
2023/06/08 06:37:54;;;;;;;16.23;14.57;;;20.80;99.90;;;;;;5071244;28;20123;-58
2023/06/08 06:40:21;;;;;;;17.40;13.90;;;20.80;99.90;;;;;;5071235;28;20032;-56
2023/06/08 06:42:47;;;;;;;19.90;15.38;;;20.80;99.90;;;;;;5071152;28;20024;-58
2023/06/08 06:45:23;;;;;;;16.90;14.23;;;20.80;99.90;;;;;;5071119;28;20032;-58
2023/06/08 06:47:49;;;;;;;16.98;14.25;;;20.90;99.90;;;;;;5071211;28;20086;-59
2023/06/08 06:50:15;;;;;;;16.33;14.47;;;20.90;99.90;;;;;;5071174;28;20445;-58
2023/06/08 06:52:41;;;;;;;17.67;14.75;;;21.00;99.90;;;;;;5071124;28;20036;-57
2023/06/08 06:55:07;;;;;;;16.30;14.20;;;21.00;99.90;;;;;;5070887;28;20082;-59
2023/06/08 06:57:34;;;;;;;16.25;14.68;;;21.10;99.90;;;;;;5071014;28;20029;-58
2023/06/08 07:00:00;;;;;;;19.13;15.23;;;21.10;99.90;;;;;;5071126;28;20013;-58
2023/06/08 07:02:29;;;;;;;17.42;14.48;;;21.20;99.90;;;;;;5069556;28;20024;-58
2023/06/08 07:04:59;;;;;;;15.77;14.18;;;21.30;99.90;;;;;;5072679;28;20449;-58
2023/06/08 07:07:26;;;;;;;15.25;13.68;;;21.20;99.90;;;;;;5074627;28;20025;-58
2023/06/08 07:09:52;;;;;;;16.80;15.00;;;21.20;99.90;;;;;;5073478;28;20459;-57
2023/06/08 07:12:18;;;;;;;20.42;14.98;;;21.30;99.90;;;;;;5074582;28;20021;-57
2023/06/08 07:14:44;;;;;;;15.35;13.50;;;21.30;99.90;;;;;;5074480;28;20036;-58
2023/06/08 07:17:11;;;;;;;17.05;15.25;;;21.40;99.90;;;;;;5074535;28;20031;-56
2023/06/08 07:19:39;;;;;;;17.48;15.65;;;21.50;99.90;;;;;;5074357;28;20082;-57
2023/06/08 07:22:06;;;;;;;17.63;15.90;;;21.60;99.90;;;;;;5074363;28;20029;-57
2023/06/08 07:24:32;;;;;;;;;;;21.70;99.90;;;;;;5074884;28;20074;-59
2023/06/08 07:26:57;;;;;;;21.38;15.75;;;21.70;99.90;;;;;;5074384;28;20313;-59
2023/06/08 07:29:23;;;;;;;18.58;14.80;;;21.70;99.50;;;;;;5074297;28;20040;-58
2023/06/08 07:31:49;;;;;;;22.33;16.83;;;21.80;99.20;;;;;;5074087;28;20111;-59
2023/06/08 07:34:15;;;;;;;17.57;15.67;;;21.80;99.40;;;;;;5073042;28;20124;-56
2023/06/08 07:36:42;;;;;;;17.23;15.38;;;21.90;99.30;;;;;;5073958;28;20051;-59
2023/06/08 07:39:07;;;;;;;18.17;16.35;;;21.90;99.50;;;;;;5074093;28;20397;-57
2023/06/08 07:41:33;;;;;;;18.02;16.13;;;22.00;99.60;;;;;;5072661;28;20029;-58
2023/06/08 07:44:01;;;;;;;19.08;15.45;;;22.10;99.70;;;;;;5074033;28;20499;-59
2023/06/08 07:46:27;;;;;;;17.70;15.90;;;22.20;99.80;;;;;;5073818;28;20025;-54
2023/06/08 07:48:53;;;;;;;16.65;15.02;;;22.30;99.10;;;;;;5073863;28;20032;-58
2023/06/08 07:51:18;;;;;;;18.50;16.07;;;22.40;98.10;;;;;;5073853;28;20020;-57
2023/06/08 07:53:44;;;;;;;24.57;18.63;;;22.60;97.50;;;;;;5073955;28;20021;-56
2023/06/08 07:56:10;;;;;;;20.70;17.87;;;22.70;97.00;;;;;;5073636;28;20035;-57
2023/06/08 07:58:36;;;;;;;18.50;16.60;;;22.90;96.90;;;;;;5073737;28;20090;-57
2023/06/08 08:01:02;;;;;;;20.97;17.93;;;23.00;96.20;;;;;;5074097;28;20025;-56
2023/06/08 08:03:28;;;;;;;18.45;16.48;;;23.10;95.40;;;;;;5073642;28;20020;-56
2023/06/08 08:05:55;;;;;;;18.50;16.50;;;23.10;94.30;;;;;;5055493;28;20478;-56
2023/06/08 08:08:21;;;;;;;18.50;16.50;;;23.10;94.20;;;;;;5073678;28;20037;-58
2023/06/08 08:10:48;;;;;;;19.30;17.30;;;23.20;94.80;;;;;;5073468;28;20044;-56
2023/06/08 08:13:14;;;;;;;20.67;18.47;;;23.30;94.40;;;;;;5073617;28;20295;-56
2023/06/08 08:15:40;;;;;;;19.85;17.75;;;23.40;94.80;;;;;;5072380;28;20040;-57
2023/06/08 08:18:06;;;;;;;20.42;18.33;;;23.40;94.20;;;;;;5073395;28;20107;-60
2023/06/08 08:20:32;;;;;;;19.47;17.37;;;23.50;93.10;;;;;;5071955;28;20507;-59
2023/06/08 08:22:57;;;;;;;21.17;18.20;;;23.60;93.10;;;;;;5073381;28;20020;-54
2023/06/08 08:25:23;;;;;;;21.70;18.77;;;23.70;92.00;;;;;;5073115;28;20020;-57
2023/06/08 08:27:49;;;;;;;20.40;18.30;;;23.90;92.60;;;;;;5073223;28;20041;-55
2023/06/08 08:30:15;;;;;;;18.27;16.27;;;24.00;92.70;;;;;;5073341;28;20036;-56
2023/06/08 08:32:41;;;;;;;17.07;15.30;;;24.20;92.30;;;;;;5073046;28;20044;-62
2023/06/08 08:35:09;;;;;;;18.17;15.10;;;24.40;91.50;;;;;;5072883;28;20491;-62
2023/06/08 08:37:36;;;;;;;16.42;14.80;;;24.40;89.10;;;;;;5072948;28;20120;-60
2023/06/08 08:40:02;;;;;;;21.33;16.67;;;24.40;86.50;;;;;;5072989;28;20027;-61
2023/06/08 08:42:31;;;;;;;19.88;17.77;;;24.40;85.40;;;;;;5072850;28;20301;-58
2023/06/08 08:45:00;;;;;;;19.50;17.13;;;24.30;88.70;;;;;;5071376;28;20040;-56
2023/06/08 08:47:29;;;;;;;18.15;16.35;;;24.30;90.30;;;;;;5071489;28;20033;-56
2023/06/08 08:50:06;;;;;;;19.45;17.63;;;24.40;88.80;;;;;;5071496;28;20479;-58
2023/06/08 08:52:37;;;;;;;20.83;17.83;;;24.50;91.30;;;;;;5072843;28;20395;-55
2023/06/08 08:55:04;;;;;;;19.88;16.33;;;24.50;91.00;;;;;;5072518;28;20033;-57
2023/06/08 08:57:31;;;;;;;19.83;16.33;;;24.60;90.40;;;;;;5071262;28;20028;-56
2023/06/08 08:59:58;;;;;;;21.52;19.33;;;24.60;90.20;;;;;;5071220;28;20033;-58
2023/06/08 09:02:25;;;;;;;22.42;20.08;;;24.70;89.80;;;;;;5072484;28;20074;-54
2023/06/08 09:04:52;;;;;;;;;;;24.60;91.00;;;;;;5072748;28;20020;-59
2023/06/08 09:07:19;;;;;;;21.42;19.17;;;24.60;90.80;;;;;;5072524;28;19943;-58
2023/06/08 09:10:24;;;;;;;20.77;18.58;;;24.60;91.30;;;;;;5071014;28;20118;-60
2023/06/08 09:12:53;;;;;;;23.90;19.67;;;24.50;89.70;;;;;;5072401;28;20479;-57
2023/06/08 09:15:26;;;;;;;20.92;18.25;;;24.50;90.20;;;;;;5072176;28;20501;-57
2023/06/08 09:17:53;;;;;;;19.52;17.50;;;24.50;89.00;;;;;;5072219;28;20078;-53
2023/06/08 09:20:27;;;;;;;22.20;18.52;;;24.40;90.10;;;;;;5072157;28;20117;-59
2023/06/08 09:22:54;;;;;;;20.27;18.17;;;24.40;88.70;;;;;;5071984;28;20028;-58
2023/06/08 09:25:37;;;;;;;21.35;18.92;;;24.40;89.20;;;;;;5072003;28;20021;-56
2023/06/08 09:28:28;;;;;;;20.25;18.17;;;24.50;89.10;;;;;;5072004;28;20510;-57
2023/06/08 09:30:57;;;;;;;20.02;18.02;;;24.50;88.90;;;;;;5071979;28;20052;-58
2023/06/08 09:33:29;;;;;;;22.80;19.20;;;24.60;88.60;;;;;;5071970;28;20102;-56
2023/06/08 09:35:58;;;;;;;24.08;19.90;;;24.60;88.00;;;;;;5071840;28;20043;-54
2023/06/08 09:38:27;;;;;;;20.60;18.40;;;24.60;88.30;;;;;;5072162;28;20082;-54
2023/06/08 09:41:21;;;;;;;21.02;18.83;;;24.70;89.20;;;;;;5071911;28;20017;-53
2023/06/08 09:43:49;;;;;;;22.92;19.52;;;24.70;87.20;;;;;;5071823;28;20478;-57
2023/06/08 09:46:48;;;;;;;23.65;19.00;;;24.70;87.40;;;;;;5071644;28;20028;-58
2023/06/08 09:49:15;;;;;;;20.50;17.98;;;24.70;86.70;;;;;;5071768;28;20051;-59
2023/06/08 09:51:49;;;;;;;21.42;19.33;;;24.70;88.50;;;;;;5071675;28;20039;-54
2023/06/08 09:54:20;;;;;;;22.33;20.20;;;24.70;85.90;;;;;;5071738;28;20152;-55
2023/06/08 09:56:54;;;;;;;23.17;20.10;;;24.50;85.00;;;;;;5071395;28;20047;-58
2023/06/08 09:59:27;;;;;;;19.92;17.92;;;24.50;86.90;;;;;;5070384;28;20156;-57
2023/06/08 10:01:55;;;;;;;21.70;19.42;;;24.50;86.20;;;;;;5071458;28;20058;-55
2023/06/08 10:04:34;;;;;;;21.88;19.58;;;24.50;85.90;;;;;;5071623;28;20095;-55
2023/06/08 10:07:03;;;;;;;20.55;17.95;;;24.60;85.90;;;;;;5070166;28;20166;-57
2023/06/08 10:09:34;;;;;;;20.50;18.30;;;24.70;88.20;;;;;;5071468;28;20025;-55
2023/06/08 10:12:00;;;;;;;19.48;17.55;;;24.80;85.30;;;;;;5071593;28;20372;-57
2023/06/08 10:14:26;;;;;;;24.10;19.13;;;24.90;85.00;;;;;;5070308;28;20554;-55
2023/06/08 10:16:54;;;;;;;21.33;19.20;;;25.00;85.60;;;;;;5071382;28;20031;-55
2023/06/08 10:19:21;;;;;;;20.48;16.67;;;25.00;82.50;;;;;;5070127;28;20039;-55
2023/06/08 10:21:48;;;;;;;18.80;16.55;;;25.10;80.70;;;;;;5071326;28;20050;-59
2023/06/08 10:24:17;;;;;;;20.35;17.70;;;25.10;79.70;;;;;;5071375;28;20457;-58
2023/06/08 10:26:44;;;;;;;17.67;15.95;;;25.20;78.90;;;;;;5071294;28;20028;-58
2023/06/08 10:29:11;;;;;;;20.27;16.45;;;25.20;79.00;;;;;;5071319;28;20537;-55
2023/06/08 10:31:42;;;;;;;18.60;14.65;;;25.40;79.70;;;;;;5069972;28;20402;-58
2023/06/08 10:34:13;;;;;;;18.08;16.17;;;25.50;76.50;;;;;;5071317;28;20035;-57
2023/06/08 10:36:41;;;;;;;14.98;13.48;;;25.50;76.60;;;;;;5070967;28;20035;-56
2023/06/08 10:39:17;;;;;;;16.67;13.02;;;25.60;77.30;;;;;;5073303;28;20029;-58
2023/06/08 10:41:54;;;;;;;13.75;12.10;;;25.80;72.10;;;;;;5065353;28;20029;-59
2023/06/08 10:44:40;;;;;;;14.25;12.85;;;25.80;69.20;;;;;;5070276;28;20111;-53
2023/06/08 10:47:08;;;;;;;15.95;13.98;;;25.80;70.50;;;;;;5053808;28;20487;-57
2023/06/08 10:49:35;;;;;;;15.90;13.85;;;25.80;71.30;;;;;;5042174;28;20036;-58
2023/06/08 10:52:03;;;;;;;16.52;14.20;;;25.80;71.50;;;;;;5058984;28;20017;-54
2023/06/08 10:54:30;;;;;;;16.58;13.68;;;25.90;70.70;;;;;;5070544;28;20090;-56
2023/06/08 10:57:03;;;;;;;17.75;15.88;;;26.00;70.80;;;;;;5063334;28;20115;-56
2023/06/08 10:59:36;;;;;;;17.95;14.82;;;26.00;69.70;;;;;;5055844;28;20040;-58
2023/06/08 11:02:04;;;;;;;17.55;15.73;;;26.10;71.20;;;;;;5061205;28;20033;-55
2023/06/08 11:04:30;;;;;;;17.60;15.73;;;26.20;72.00;;;;;;5068285;28;20496;-55
2023/06/08 11:07:14;;;;;;;20.27;17.10;;;26.30;72.10;;;;;;5064033;28;20048;-57
2023/06/08 11:09:40;;;;;;;17.98;16.10;;;26.40;70.20;;;;;;5057014;28;20033;-56
2023/06/08 11:12:06;;;;;;;19.10;16.47;;;26.30;71.20;;;;;;5070517;28;20078;-57
2023/06/08 11:14:32;;;;;;;18.15;16.27;;;26.40;73.30;;;;;;5061459;28;20032;-55
2023/06/08 11:16:58;;;;;;;16.97;15.27;;;26.60;75.30;;;;;;5054348;28;20025;-55
2023/06/08 11:19:28;;;;;;;18.13;15.55;;;26.60;70.60;;;;;;5060373;28;20029;-56
2023/06/08 11:21:54;;;;;;;17.75;15.85;;;26.70;70.20;;;;;;5050601;28;20031;-56
2023/06/08 11:24:25;;;;;;;11.17;10.00;;;26.80;69.40;;;;;;5055263;28;20021;-54
2023/06/08 11:26:58;;;;;;;14.05;10.43;;;26.80;64.40;;;;;;5061360;28;20654;-58
2023/06/08 11:29:25;;;;;;;14.80;13.23;;;26.90;66.20;;;;;;5064947;28;20353;-56
2023/06/08 11:31:51;;;;;;;13.25;11.95;;;27.00;66.70;;;;;;5050691;28;20509;-57
2023/06/08 11:34:18;;;;;;;;;;;27.20;63.90;;;;;;5058695;28;20444;-60
2023/06/08 11:36:44;;;;;;;12.07;10.80;;;27.10;63.20;;;;;;5063080;28;19991;-57
2023/06/08 11:39:12;;;;;;;12.23;10.97;;;27.10;64.30;;;;;;5062508;28;20464;-59
2023/06/08 11:41:46;;;;;;;16.60;13.13;;;27.20;64.90;;;;;;5069274;28;20024;-56
2023/06/08 11:44:15;;;;;;;11.95;10.75;;;27.30;62.90;;;;;;5057282;28;20487;-58
2023/06/08 11:46:41;;;;;;;12.55;10.70;;;27.50;67.70;;;;;;5062549;28;20033;-55
2023/06/08 11:49:08;;;;;;;;;;;27.70;66.90;;;;;;5064851;28;20024;-56
2023/06/08 11:51:44;;;;;;;13.73;11.57;;;27.80;64.50;;;;;;5060973;28;19908;-56
2023/06/08 11:54:09;;;;;;;12.60;11.40;;;27.80;62.70;;;;;;5056833;28;20032;-59
2023/06/08 11:56:35;;;;;;;12.57;11.20;;;27.60;61.30;;;;;;5066877;28;20082;-57
2023/06/08 11:59:05;;;;;;;17.50;15.70;;;27.70;62.10;;;;;;5063600;28;20124;-58
2023/06/08 12:01:31;;;;;;;18.10;16.20;;;27.80;64.40;;;;;;5069658;28;20281;-54
2023/06/08 12:03:57;;;;;;;15.93;14.37;;;27.70;64.10;;;;;;5063123;28;20017;-58
2023/06/08 12:06:26;;;;;;;18.40;15.07;;;27.70;65.00;;;;;;5058017;28;20301;-58
2023/06/08 12:08:54;;;;;;;16.35;14.50;;;27.80;62.40;;;;;;5064620;28;20060;-60
2023/06/08 12:11:21;;;;;;;15.15;13.55;;;27.90;64.00;;;;;;5065808;28;20062;-57
2023/06/08 12:13:48;;;;;;;13.90;12.50;;;28.10;61.00;;;;;;5062582;28;20386;-58
2023/06/08 12:16:14;;;;;;;17.48;13.93;;;28.10;59.90;;;;;;5064729;28;20032;-59
2023/06/08 12:18:42;;;;;;;14.38;11.88;;;28.20;59.90;;;;;;5066356;28;20098;-57
2023/06/08 12:21:10;;;;;;;13.15;11.82;;;28.30;60.10;;;;;;5053078;28;20045;-60
2023/06/08 12:23:36;;;;;;;13.70;12.30;;;28.40;60.20;;;;;;5067598;28;20021;-56
2023/06/08 12:26:02;;;;;;;12.43;10.67;;;28.50;58.90;;;;;;5056076;28;20166;-56
2023/06/08 12:28:30;;;;;;;11.68;9.40;;;28.50;56.80;;;;;;5066526;28;20057;-60
2023/06/08 12:30:59;;;;;;;12.90;10.43;;;28.60;56.80;;;;;;5053982;28;20193;-56
2023/06/08 12:33:26;;;;;;;8.52;7.72;;;28.60;58.80;;;;;;5054117;28;20036;-60
2023/06/08 12:35:53;;;;;;;11.00;9.95;;;28.80;59.70;;;;;;5069016;28;20111;-56